OMRK/RKT METAR and TAF weather

Enter ICAO airport designator
Station Type Date Time Source
OMRK METAR 2020/01/29 13:00 UTC NOAA

OMRK 291300Z 34010KT 9999 FEW040 21/10 Q1018 A3008


Station Type Date Time Source
OMRK Decoded METAR 2020/01/29 13:00 UTC NOAA

Ras Al Khaimah International Airport, United Arab Emirates (OMRK) 25-37N 055-56E 31M
Jan 29, 2020 - 08:00 AM EST / 2020.01.29 1300 UTC
Wind: from the NNW (340 degrees) at 12 MPH (10 KT):0
Visibility: greater than 7 mile(s):0
Sky conditions: mostly clear
Temperature: 69 F (21 C)
Dew Point: 50 F (10 C)
Relative Humidity: 49%
Pressure (altimeter): 30.08 in. Hg (1018 hPa)
ob: OMRK 291300Z 34010KT 9999 FEW040 21/10 Q1018 A3008
cycle: 13

Station Type Date Time Source
OMRK TAF 2020/01/29 06:03 UTC NOAA

TAF OMRK 290455Z 2906/3012 VRB02KT 8000 NSC
BECMG 2909/2911 34010KT
BECMG 2915/2917 VRB02KT PROB30 3000/3005 4000 HZ
BECMG 3007/3009 29010KT

Example: see airport list